This is the latest recevied weather packets stored in our database for station/object KF0PEC-15. If no packets are shown the sender has not sent any weather packets the latest 10 day(s).
| Time | Temp. | Humidity | Pressure | Rain* | Wind** | Luminosity | Snow |
|---|---|---|---|---|---|---|---|
| 1777715266 | 1.11° C | 68% | 1030.9 hPa | 0 mm | - | 0 W/m² | - |
| 1777714725 | 1.67° C | 65% | 1030.5 hPa | 0 mm | - | 0 W/m² | - |
| 1777714190 | 1.67° C | 65% | 1030.6 hPa | 0 mm | - | 0 W/m² | - |
| 1777713705 | 1.11° C | 66% | 1030.8 hPa | 0 mm | - | 0 W/m² | - |
| 1777713165 | 1.11° C | 68% | 1030.7 hPa | 0 mm | - | 0 W/m² | - |
| 1777712570 | 1.67° C | 67% | 1030.5 hPa | 0 mm | - | 0 W/m² | - |
| 1777712045 | 1.67° C | 67% | 1030.6 hPa | 0 mm | - | 0 W/m² | - |
| 1777711515 | 1.67° C | 67% | 1030.4 hPa | 0 mm | - | 0 W/m² | - |
| 1777710975 | 1.67° C | 65% | 1030.3 hPa | 0 mm | - | 0 W/m² | - |
| 1777710425 | 1.67° C | 66% | 1030.6 hPa | 0 mm | - | 0 W/m² | - |
| 1777709885 | 1.67° C | 67% | 1030.6 hPa | 0 mm | - | 0 W/m² | - |
| 1777709335 | 1.67° C | 68% | 1030.5 hPa | 0 mm | - | 0 W/m² | - |
| 1777708750 | 1.67° C | 67% | 1030.6 hPa | 0 mm | - | 0 W/m² | - |
| 1777708185 | 1.67° C | 68% | 1030.7 hPa | 0 mm | - | 0 W/m² | - |
| 1777707595 | 1.11° C | 71% | 1031 hPa | 0 mm | - | 0 W/m² | - |
| 1777707005 | 1.11° C | 72% | 1031.2 hPa | 0 mm | - | 0 W/m² | - |
| 1777706437 | 1.11° C | 72% | 1031.3 hPa | 0 mm | - | 0 W/m² | - |
| 1777705845 | 1.11° C | 71% | 1031.2 hPa | 0 mm | - | 0 W/m² | - |
| 1777705255 | 1.11° C | 72% | 1031 hPa | 0 mm | - | 0 W/m² | - |
| 1777704697 | 1.11° C | 72% | 1030.8 hPa | 0 mm | - | 0 W/m² | - |
| 1777704150 | 1.67° C | 69% | 1030.4 hPa | 0 mm | - | 0 W/m² | - |
| 1777703550 | 2.22° C | 69% | 1030.1 hPa | 0 mm | - | 0 W/m² | - |
| 1777703070 | 2.78° C | 65% | 1029.6 hPa | 0 mm | - | 0 W/m² | - |
| 1777702510 | 2.22° C | 66% | 1029.7 hPa | 0 mm | - | 0 W/m² | - |
| 1777701925 | 2.22° C | 68% | 1029.8 hPa | 0 mm | - | 0 W/m² | - |
* Rain latest hour (hover to see other rain measurements)
** Current wind speed in m/s (hover to see current wind gust speed)